Main page
METAR-TAF:

METAR-TAF

Airports :

Blackpool Airport

Blackpool, England

latitude: 53-46N, longitude: 003-02W, elevation: 10 m

Current weather observation

The report was made 9 hours and 13 minutes ago, at 19:50 UTC
Wind 3 kt from the North/Northwest
Temperature 17°C
Humidity 68%
Pressure 1017 hPa
Visibility 10 km or more
no clouds below 1500 m and no cumulonimbus

METAR: EGNH 201950Z 34003KT CAVOK 17/11 Q1017

Time: 06:03 (05:03 UTC)

Forecast

The report was made 12 hours and 3 minutes ago, at 17:00 UTC
Forecast valid from 20 at 18 UTC to 20 at 20 UTC
Wind 8 kt from the West/Northwest
Visibility 10 km or more
Few clouds at a height of 4500 ft

TAF: EGNH 201700Z 2018/2020 29008KT 9999 FEW045

Weather observations and forecasts of more than 4000 airports (METAR and TAF reports).

The available stations are represented by yellow and red dots on the map.

Hover mouse over dot to see the name of the station.

Then click to see weather observations and forecasts.

To change the map : click on the green buttons with a black cross to zoom in, on the green button with a dash to zoom out, or on the green arrows for adjacent maps.


METAR-TAF: